sensor_id;sensor_type;location;lat;lon;timestamp;temperature;humidity
8420;DHT22;4247;48.550;8.822;2022-11-15T00:02:09;7.60;99.90
8420;DHT22;4247;48.550;8.822;2022-11-15T00:04:36;7.60;99.90
8420;DHT22;4247;48.550;8.822;2022-11-15T00:07:03;7.60;99.90
8420;DHT22;4247;48.550;8.822;2022-11-15T00:09:31;7.60;99.90
8420;DHT22;4247;48.550;8.822;2022-11-15T00:11:58;7.60;99.90
8420;DHT22;4247;48.550;8.822;2022-11-15T00:14:25;7.60;99.90
8420;DHT22;4247;48.550;8.822;2022-11-15T00:16:52;7.60;99.90
8420;DHT22;4247;48.550;8.822;2022-11-15T00:19:19;7.50;99.90
8420;DHT22;4247;48.550;8.822;2022-11-15T00:21:46;7.50;99.90
8420;DHT22;4247;48.550;8.822;2022-11-15T00:24:13;7.50;99.90
8420;DHT22;4247;48.550;8.822;2022-11-15T00:26:41;7.50;99.90
8420;DHT22;4247;48.550;8.822;2022-11-15T00:29:08;7.40;99.90
8420;DHT22;4247;48.550;8.822;2022-11-15T00:31:35;7.40;99.90
8420;DHT22;4247;48.550;8.822;2022-11-15T00:34:01;7.40;99.90
8420;DHT22;4247;48.550;8.822;2022-11-15T00:36:28;7.40;99.90
8420;DHT22;4247;48.550;8.822;2022-11-15T00:38:55;7.30;99.90
8420;DHT22;4247;48.550;8.822;2022-11-15T00:41:22;7.30;99.90
8420;DHT22;4247;48.550;8.822;2022-11-15T00:43:50;7.20;99.90
8420;DHT22;4247;48.550;8.822;2022-11-15T00:46:17;7.20;99.90
8420;DHT22;4247;48.550;8.822;2022-11-15T00:48:44;7.20;99.90
8420;DHT22;4247;48.550;8.822;2022-11-15T00:51:10;7.10;99.90
8420;DHT22;4247;48.550;8.822;2022-11-15T00:53:37;7.10;99.90
8420;DHT22;4247;48.550;8.822;2022-11-15T00:56:04;7.10;99.90
8420;DHT22;4247;48.550;8.822;2022-11-15T00:58:31;7.10;99.90
8420;DHT22;4247;48.550;8.822;2022-11-15T01:01:07;7.10;99.90
8420;DHT22;4247;48.550;8.822;2022-11-15T01:03:34;7.00;99.90
8420;DHT22;4247;48.550;8.822;2022-11-15T01:06:01;7.00;99.90
8420;DHT22;4247;48.550;8.822;2022-11-15T01:08:28;7.00;99.90
8420;DHT22;4247;48.550;8.822;2022-11-15T01:11:00;7.00;99.90
8420;DHT22;4247;48.550;8.822;2022-11-15T01:13:30;7.00;99.90
8420;DHT22;4247;48.550;8.822;2022-11-15T01:15:57;7.00;99.90
8420;DHT22;4247;48.550;8.822;2022-11-15T01:18:25;7.00;99.90
8420;DHT22;4247;48.550;8.822;2022-11-15T01:20:52;7.00;99.90
8420;DHT22;4247;48.550;8.822;2022-11-15T01:23:19;7.00;99.90
8420;DHT22;4247;48.550;8.822;2022-11-15T01:25:46;7.00;99.90
8420;DHT22;4247;48.550;8.822;2022-11-15T01:28:13;7.00;99.90
8420;DHT22;4247;48.550;8.822;2022-11-15T01:30:40;7.00;99.90
8420;DHT22;4247;48.550;8.822;2022-11-15T01:33:07;7.00;99.90
8420;DHT22;4247;48.550;8.822;2022-11-15T01:35:38;7.00;99.90
8420;DHT22;4247;48.550;8.822;2022-11-15T01:38:05;7.10;99.90
8420;DHT22;4247;48.550;8.822;2022-11-15T01:40:32;7.10;99.90
8420;DHT22;4247;48.550;8.822;2022-11-15T01:42:59;7.20;99.90
8420;DHT22;4247;48.550;8.822;2022-11-15T01:45:26;7.20;99.90
8420;DHT22;4247;48.550;8.822;2022-11-15T01:47:54;7.20;99.90
8420;DHT22;4247;48.550;8.822;2022-11-15T01:50:24;7.20;99.90
8420;DHT22;4247;48.550;8.822;2022-11-15T01:52:53;7.30;99.90
8420;DHT22;4247;48.550;8.822;2022-11-15T01:55:22;7.30;99.90
8420;DHT22;4247;48.550;8.822;2022-11-15T01:57:54;7.30;99.90
8420;DHT22;4247;48.550;8.822;2022-11-15T02:00:21;7.30;99.90
8420;DHT22;4247;48.550;8.822;2022-11-15T02:02:48;7.40;99.90
8420;DHT22;4247;48.550;8.822;2022-11-15T02:05:15;7.40;99.90
8420;DHT22;4247;48.550;8.822;2022-11-15T02:07:42;7.40;99.90
8420;DHT22;4247;48.550;8.822;2022-11-15T02:10:12;7.40;99.90
8420;DHT22;4247;48.550;8.822;2022-11-15T02:12:41;7.40;99.90
8420;DHT22;4247;48.550;8.822;2022-11-15T02:15:08;7.40;99.90
8420;DHT22;4247;48.550;8.822;2022-11-15T02:17:54;7.40;99.90
8420;DHT22;4247;48.550;8.822;2022-11-15T02:20:40;7.40;99.90
8420;DHT22;4247;48.550;8.822;2022-11-15T02:26:38;7.50;99.90
8420;DHT22;4247;48.550;8.822;2022-11-15T02:29:11;7.50;99.90
8420;DHT22;4247;48.550;8.822;2022-11-15T02:31:47;7.50;99.90
8420;DHT22;4247;48.550;8.822;2022-11-15T02:34:23;7.60;99.90
8420;DHT22;4247;48.550;8.822;2022-11-15T02:37:00;7.60;99.90
8420;DHT22;4247;48.550;8.822;2022-11-15T02:39:35;7.60;99.90
8420;DHT22;4247;48.550;8.822;2022-11-15T02:42:09;7.60;99.90
8420;DHT22;4247;48.550;8.822;2022-11-15T02:44:58;7.50;99.90
8420;DHT22;4247;48.550;8.822;2022-11-15T02:47:31;7.50;99.90
8420;DHT22;4247;48.550;8.822;2022-11-15T02:50:03;7.50;99.90
8420;DHT22;4247;48.550;8.822;2022-11-15T02:52:31;7.60;99.90
8420;DHT22;4247;48.550;8.822;2022-11-15T02:55:00;7.60;99.90
8420;DHT22;4247;48.550;8.822;2022-11-15T02:57:39;7.60;99.90
8420;DHT22;4247;48.550;8.822;2022-11-15T03:00:12;7.60;99.90
8420;DHT22;4247;48.550;8.822;2022-11-15T03:03:01;7.60;99.90
8420;DHT22;4247;48.550;8.822;2022-11-15T03:05:36;7.70;99.90
8420;DHT22;4247;48.550;8.822;2022-11-15T03:08:08;7.60;99.90
8420;DHT22;4247;48.550;8.822;2022-11-15T03:10:43;7.70;99.90
8420;DHT22;4247;48.550;8.822;2022-11-15T03:13:20;7.70;99.90
8420;DHT22;4247;48.550;8.822;2022-11-15T03:15:53;7.70;99.90
8420;DHT22;4247;48.550;8.822;2022-11-15T03:18:29;7.70;99.90
8420;DHT22;4247;48.550;8.822;2022-11-15T03:21:00;7.60;99.90
8420;DHT22;4247;48.550;8.822;2022-11-15T03:23:29;7.60;99.90
8420;DHT22;4247;48.550;8.822;2022-11-15T03:25:58;7.50;99.90
8420;DHT22;4247;48.550;8.822;2022-11-15T03:28:30;7.50;99.90
8420;DHT22;4247;48.550;8.822;2022-11-15T03:31:02;7.50;99.90
8420;DHT22;4247;48.550;8.822;2022-11-15T03:33:53;7.50;99.90
8420;DHT22;4247;48.550;8.822;2022-11-15T03:36:23;7.50;99.90
8420;DHT22;4247;48.550;8.822;2022-11-15T03:38:54;7.40;99.90
8420;DHT22;4247;48.550;8.822;2022-11-15T03:41:27;7.40;99.90
8420;DHT22;4247;48.550;8.822;2022-11-15T03:43:59;7.40;99.90
8420;DHT22;4247;48.550;8.822;2022-11-15T03:46:33;7.40;99.90
8420;DHT22;4247;48.550;8.822;2022-11-15T03:49:09;7.40;99.90
8420;DHT22;4247;48.550;8.822;2022-11-15T03:51:36;7.40;99.90
8420;DHT22;4247;48.550;8.822;2022-11-15T03:54:04;7.40;99.90
8420;DHT22;4247;48.550;8.822;2022-11-15T03:56:31;7.40;99.90
8420;DHT22;4247;48.550;8.822;2022-11-15T03:58:58;7.40;99.90
8420;DHT22;4247;48.550;8.822;2022-11-15T04:01:25;7.40;99.90
8420;DHT22;4247;48.550;8.822;2022-11-15T04:03:52;7.50;99.90
8420;DHT22;4247;48.550;8.822;2022-11-15T04:06:20;7.50;99.90
8420;DHT22;4247;48.550;8.822;2022-11-15T04:08:47;7.50;99.90
8420;DHT22;4247;48.550;8.822;2022-11-15T04:11:14;7.50;99.90
8420;DHT22;4247;48.550;8.822;2022-11-15T04:13:41;7.50;99.90
8420;DHT22;4247;48.550;8.822;2022-11-15T04:16:08;7.50;99.90
8420;DHT22;4247;48.550;8.822;2022-11-15T04:18:34;7.60;99.90
8420;DHT22;4247;48.550;8.822;2022-11-15T04:21:01;7.60;99.90
8420;DHT22;4247;48.550;8.822;2022-11-15T04:23:44;7.60;99.90
8420;DHT22;4247;48.550;8.822;2022-11-15T04:26:27;7.60;99.90
8420;DHT22;4247;48.550;8.822;2022-11-15T04:28:54;7.60;99.90
8420;DHT22;4247;48.550;8.822;2022-11-15T04:31:38;7.60;99.90
8420;DHT22;4247;48.550;8.822;2022-11-15T04:34:05;7.70;99.90
8420;DHT22;4247;48.550;8.822;2022-11-15T04:36:32;7.70;99.90
8420;DHT22;4247;48.550;8.822;2022-11-15T04:39:17;7.80;99.90
8420;DHT22;4247;48.550;8.822;2022-11-15T04:41:44;7.80;99.90
8420;DHT22;4247;48.550;8.822;2022-11-15T04:44:11;7.80;99.90
8420;DHT22;4247;48.550;8.822;2022-11-15T04:46:38;7.80;99.90
8420;DHT22;4247;48.550;8.822;2022-11-15T04:49:05;7.80;99.90
8420;DHT22;4247;48.550;8.822;2022-11-15T04:51:32;7.80;99.90
8420;DHT22;4247;48.550;8.822;2022-11-15T04:53:59;7.80;99.90
8420;DHT22;4247;48.550;8.822;2022-11-15T04:56:27;7.90;99.90
8420;DHT22;4247;48.550;8.822;2022-11-15T04:58:54;7.90;99.90
8420;DHT22;4247;48.550;8.822;2022-11-15T05:01:20;7.90;99.90
8420;DHT22;4247;48.550;8.822;2022-11-15T05:03:47;8.00;99.90
8420;DHT22;4247;48.550;8.822;2022-11-15T05:06:32;7.90;99.90
8420;DHT22;4247;48.550;8.822;2022-11-15T05:08:59;8.00;99.90
8420;DHT22;4247;48.550;8.822;2022-11-15T05:11:27;8.00;99.90
8420;DHT22;4247;48.550;8.822;2022-11-15T05:13:54;8.00;99.90
8420;DHT22;4247;48.550;8.822;2022-11-15T05:16:21;8.00;99.90
8420;DHT22;4247;48.550;8.822;2022-11-15T05:18:50;8.00;99.90
8420;DHT22;4247;48.550;8.822;2022-11-15T05:21:17;8.00;99.90
8420;DHT22;4247;48.550;8.822;2022-11-15T05:23:44;8.00;99.90
8420;DHT22;4247;48.550;8.822;2022-11-15T05:26:12;8.00;99.90
8420;DHT22;4247;48.550;8.822;2022-11-15T05:28:40;7.90;99.90
8420;DHT22;4247;48.550;8.822;2022-11-15T05:31:09;7.90;99.90
8420;DHT22;4247;48.550;8.822;2022-11-15T05:33:37;7.80;99.90
8420;DHT22;4247;48.550;8.822;2022-11-15T05:36:09;7.80;99.90
8420;DHT22;4247;48.550;8.822;2022-11-15T05:38:38;7.80;99.90
8420;DHT22;4247;48.550;8.822;2022-11-15T05:41:06;7.70;99.90
8420;DHT22;4247;48.550;8.822;2022-11-15T05:43:35;7.70;99.90
8420;DHT22;4247;48.550;8.822;2022-11-15T05:46:05;7.70;99.90
8420;DHT22;4247;48.550;8.822;2022-11-15T05:48:32;7.60;99.90
8420;DHT22;4247;48.550;8.822;2022-11-15T05:50:59;7.60;99.90
8420;DHT22;4247;48.550;8.822;2022-11-15T05:53:26;7.50;99.90
8420;DHT22;4247;48.550;8.822;2022-11-15T05:55:53;7.50;99.90
8420;DHT22;4247;48.550;8.822;2022-11-15T05:58:20;7.50;99.90
8420;DHT22;4247;48.550;8.822;2022-11-15T06:00:47;7.50;99.90
8420;DHT22;4247;48.550;8.822;2022-11-15T06:03:16;7.50;99.90
8420;DHT22;4247;48.550;8.822;2022-11-15T06:05:42;7.50;99.90
8420;DHT22;4247;48.550;8.822;2022-11-15T06:08:09;7.40;99.90
8420;DHT22;4247;48.550;8.822;2022-11-15T06:10:36;7.40;99.90
8420;DHT22;4247;48.550;8.822;2022-11-15T06:13:04;7.40;99.90
8420;DHT22;4247;48.550;8.822;2022-11-15T06:15:32;7.40;99.90
8420;DHT22;4247;48.550;8.822;2022-11-15T06:18:00;7.40;99.90
8420;DHT22;4247;48.550;8.822;2022-11-15T06:20:29;7.30;99.90
8420;DHT22;4247;48.550;8.822;2022-11-15T06:22:57;7.30;99.90
8420;DHT22;4247;48.550;8.822;2022-11-15T06:25:24;7.30;99.90
8420;DHT22;4247;48.550;8.822;2022-11-15T06:27:51;7.30;99.90
8420;DHT22;4247;48.550;8.822;2022-11-15T06:30:19;7.30;99.90
8420;DHT22;4247;48.550;8.822;2022-11-15T06:32:46;7.30;99.90
8420;DHT22;4247;48.550;8.822;2022-11-15T06:35:13;7.30;99.90
8420;DHT22;4247;48.550;8.822;2022-11-15T06:37:41;7.40;99.90
8420;DHT22;4247;48.550;8.822;2022-11-15T06:40:10;7.30;99.90
8420;DHT22;4247;48.550;8.822;2022-11-15T06:42:37;7.40;99.90
8420;DHT22;4247;48.550;8.822;2022-11-15T06:45:04;7.40;99.90
8420;DHT22;4247;48.550;8.822;2022-11-15T06:47:31;7.40;99.90
8420;DHT22;4247;48.550;8.822;2022-11-15T06:49:58;7.40;99.90
8420;DHT22;4247;48.550;8.822;2022-11-15T06:52:25;7.40;99.90
8420;DHT22;4247;48.550;8.822;2022-11-15T06:54:53;7.30;99.90
8420;DHT22;4247;48.550;8.822;2022-11-15T06:57:20;7.40;99.90
8420;DHT22;4247;48.550;8.822;2022-11-15T06:59:47;7.40;99.90
8420;DHT22;4247;48.550;8.822;2022-11-15T07:02:14;7.40;99.90
8420;DHT22;4247;48.550;8.822;2022-11-15T07:04:41;7.40;99.90
8420;DHT22;4247;48.550;8.822;2022-11-15T07:07:08;7.40;99.90
8420;DHT22;4247;48.550;8.822;2022-11-15T07:09:34;7.40;99.90
8420;DHT22;4247;48.550;8.822;2022-11-15T07:12:03;7.40;99.90
8420;DHT22;4247;48.550;8.822;2022-11-15T07:14:30;7.50;99.90
8420;DHT22;4247;48.550;8.822;2022-11-15T07:16:57;7.50;99.90
8420;DHT22;4247;48.550;8.822;2022-11-15T07:19:24;7.60;99.90
8420;DHT22;4247;48.550;8.822;2022-11-15T07:21:51;7.60;99.90
8420;DHT22;4247;48.550;8.822;2022-11-15T07:24:17;7.70;99.90
8420;DHT22;4247;48.550;8.822;2022-11-15T07:26:44;7.80;99.90
8420;DHT22;4247;48.550;8.822;2022-11-15T07:29:13;7.80;99.90
8420;DHT22;4247;48.550;8.822;2022-11-15T07:31:39;7.80;99.90
8420;DHT22;4247;48.550;8.822;2022-11-15T07:34:06;7.90;99.90
8420;DHT22;4247;48.550;8.822;2022-11-15T07:36:34;7.90;99.90
8420;DHT22;4247;48.550;8.822;2022-11-15T07:39:00;7.90;99.90
8420;DHT22;4247;48.550;8.822;2022-11-15T07:41:28;8.00;99.90
8420;DHT22;4247;48.550;8.822;2022-11-15T07:43:55;8.00;99.90
8420;DHT22;4247;48.550;8.822;2022-11-15T07:46:24;8.00;99.90
8420;DHT22;4247;48.550;8.822;2022-11-15T07:48:51;8.00;99.90
8420;DHT22;4247;48.550;8.822;2022-11-15T07:51:18;8.00;99.90
8420;DHT22;4247;48.550;8.822;2022-11-15T07:53:45;8.10;99.90
8420;DHT22;4247;48.550;8.822;2022-11-15T07:56:13;8.10;99.90
8420;DHT22;4247;48.550;8.822;2022-11-15T07:58:40;8.10;99.90
8420;DHT22;4247;48.550;8.822;2022-11-15T08:01:09;8.10;99.90
8420;DHT22;4247;48.550;8.822;2022-11-15T08:03:37;8.20;99.90
8420;DHT22;4247;48.550;8.822;2022-11-15T08:06:05;8.20;99.90
8420;DHT22;4247;48.550;8.822;2022-11-15T08:08:32;8.30;99.90
8420;DHT22;4247;48.550;8.822;2022-11-15T08:10:59;8.40;99.90
8420;DHT22;4247;48.550;8.822;2022-11-15T08:13:26;8.40;99.90
8420;DHT22;4247;48.550;8.822;2022-11-15T08:15:57;8.50;99.90
8420;DHT22;4247;48.550;8.822;2022-11-15T08:18:24;8.60;99.90
8420;DHT22;4247;48.550;8.822;2022-11-15T08:20:53;8.70;99.90
8420;DHT22;4247;48.550;8.822;2022-11-15T08:23:20;8.80;99.90
8420;DHT22;4247;48.550;8.822;2022-11-15T08:25:46;8.90;99.90
8420;DHT22;4247;48.550;8.822;2022-11-15T08:28:16;9.00;99.90
8420;DHT22;4247;48.550;8.822;2022-11-15T08:30:43;9.10;99.90
8420;DHT22;4247;48.550;8.822;2022-11-15T08:33:12;9.20;99.90
8420;DHT22;4247;48.550;8.822;2022-11-15T08:35:41;9.30;99.90
8420;DHT22;4247;48.550;8.822;2022-11-15T08:38:10;9.40;99.90
8420;DHT22;4247;48.550;8.822;2022-11-15T08:40:37;9.50;99.90
8420;DHT22;4247;48.550;8.822;2022-11-15T08:43:04;9.50;99.90
8420;DHT22;4247;48.550;8.822;2022-11-15T08:45:32;9.60;99.90
8420;DHT22;4247;48.550;8.822;2022-11-15T08:48:01;9.70;99.90
8420;DHT22;4247;48.550;8.822;2022-11-15T08:50:28;9.80;99.90
8420;DHT22;4247;48.550;8.822;2022-11-15T08:52:55;9.80;99.90
8420;DHT22;4247;48.550;8.822;2022-11-15T08:55:23;9.80;99.90
8420;DHT22;4247;48.550;8.822;2022-11-15T08:57:50;9.90;99.90
8420;DHT22;4247;48.550;8.822;2022-11-15T09:00:17;9.90;99.90
8420;DHT22;4247;48.550;8.822;2022-11-15T09:02:46;10.10;99.90
8420;DHT22;4247;48.550;8.822;2022-11-15T09:05:13;10.10;99.90
8420;DHT22;4247;48.550;8.822;2022-11-15T09:07:41;10.20;99.90
8420;DHT22;4247;48.550;8.822;2022-11-15T09:10:08;10.20;99.90
8420;DHT22;4247;48.550;8.822;2022-11-15T09:12:36;10.30;99.90
8420;DHT22;4247;48.550;8.822;2022-11-15T09:15:04;10.30;99.90
8420;DHT22;4247;48.550;8.822;2022-11-15T09:17:32;10.40;99.90
8420;DHT22;4247;48.550;8.822;2022-11-15T09:19:58;10.50;99.90
8420;DHT22;4247;48.550;8.822;2022-11-15T09:22:25;10.60;99.90
8420;DHT22;4247;48.550;8.822;2022-11-15T09:24:52;10.70;99.90
8420;DHT22;4247;48.550;8.822;2022-11-15T09:27:19;10.80;99.90
8420;DHT22;4247;48.550;8.822;2022-11-15T09:29:47;10.80;99.90
8420;DHT22;4247;48.550;8.822;2022-11-15T09:32:14;10.90;99.90
8420;DHT22;4247;48.550;8.822;2022-11-15T09:34:41;11.00;99.90
8420;DHT22;4247;48.550;8.822;2022-11-15T09:37:08;11.00;99.90
8420;DHT22;4247;48.550;8.822;2022-11-15T09:39:34;11.10;99.90
8420;DHT22;4247;48.550;8.822;2022-11-15T09:42:24;11.20;99.90
8420;DHT22;4247;48.550;8.822;2022-11-15T09:45:03;11.30;99.90
8420;DHT22;4247;48.550;8.822;2022-11-15T09:50:32;11.40;99.90
8420;DHT22;4247;48.550;8.822;2022-11-15T09:53:00;11.40;99.90
8420;DHT22;4247;48.550;8.822;2022-11-15T09:55:35;11.50;99.90
8420;DHT22;4247;48.550;8.822;2022-11-15T09:58:09;11.50;99.90
8420;DHT22;4247;48.550;8.822;2022-11-15T10:00:44;11.50;99.90
8420;DHT22;4247;48.550;8.822;2022-11-15T10:03:13;11.50;99.90
8420;DHT22;4247;48.550;8.822;2022-11-15T10:05:42;11.60;99.90
8420;DHT22;4247;48.550;8.822;2022-11-15T10:08:31;11.60;99.90
8420;DHT22;4247;48.550;8.822;2022-11-15T10:11:03;11.70;99.90
8420;DHT22;4247;48.550;8.822;2022-11-15T10:13:33;11.70;99.90
8420;DHT22;4247;48.550;8.822;2022-11-15T10:16:12;11.80;99.90
8420;DHT22;4247;48.550;8.822;2022-11-15T10:18:51;11.90;99.90
8420;DHT22;4247;48.550;8.822;2022-11-15T10:21:25;11.90;99.90
8420;DHT22;4247;48.550;8.822;2022-11-15T10:23:54;12.00;99.90
8420;DHT22;4247;48.550;8.822;2022-11-15T10:26:21;12.00;99.90
8420;DHT22;4247;48.550;8.822;2022-11-15T10:28:49;12.10;99.90
8420;DHT22;4247;48.550;8.822;2022-11-15T10:31:26;12.10;99.90
8420;DHT22;4247;48.550;8.822;2022-11-15T10:36:44;12.20;99.90
8420;DHT22;4247;48.550;8.822;2022-11-15T10:39:13;12.20;99.90
8420;DHT22;4247;48.550;8.822;2022-11-15T10:41:41;12.20;99.90
8420;DHT22;4247;48.550;8.822;2022-11-15T10:44:29;12.20;99.90
8420;DHT22;4247;48.550;8.822;2022-11-15T10:47:22;12.30;99.90
8420;DHT22;4247;48.550;8.822;2022-11-15T10:49:58;12.30;99.90
8420;DHT22;4247;48.550;8.822;2022-11-15T10:52:26;12.30;99.90
8420;DHT22;4247;48.550;8.822;2022-11-15T10:54:56;12.30;99.90
8420;DHT22;4247;48.550;8.822;2022-11-15T10:57:28;12.20;99.90
8420;DHT22;4247;48.550;8.822;2022-11-15T10:59:58;12.20;99.90
8420;DHT22;4247;48.550;8.822;2022-11-15T11:02:40;12.20;99.90
8420;DHT22;4247;48.550;8.822;2022-11-15T11:05:27;12.30;99.90
8420;DHT22;4247;48.550;8.822;2022-11-15T11:07:56;12.30;99.90
8420;DHT22;4247;48.550;8.822;2022-11-15T11:10:24;12.30;99.90
8420;DHT22;4247;48.550;8.822;2022-11-15T11:12:51;12.40;99.90
8420;DHT22;4247;48.550;8.822;2022-11-15T11:15:18;12.30;99.90
8420;DHT22;4247;48.550;8.822;2022-11-15T11:17:57;12.40;99.90
8420;DHT22;4247;48.550;8.822;2022-11-15T11:20:30;12.40;99.90
8420;DHT22;4247;48.550;8.822;2022-11-15T11:23:06;12.50;99.90
8420;DHT22;4247;48.550;8.822;2022-11-15T11:25:47;12.50;99.90
8420;DHT22;4247;48.550;8.822;2022-11-15T11:28:28;12.50;99.90
8420;DHT22;4247;48.550;8.822;2022-11-15T11:31:04;12.60;99.90
8420;DHT22;4247;48.550;8.822;2022-11-15T11:33:42;12.60;99.90
8420;DHT22;4247;48.550;8.822;2022-11-15T11:36:18;12.60;99.90
8420;DHT22;4247;48.550;8.822;2022-11-15T11:39:10;12.60;99.90
8420;DHT22;4247;48.550;8.822;2022-11-15T11:42:00;12.70;99.90
8420;DHT22;4247;48.550;8.822;2022-11-15T11:44:37;12.70;99.90
8420;DHT22;4247;48.550;8.822;2022-11-15T11:47:09;12.70;99.90
8420;DHT22;4247;48.550;8.822;2022-11-15T11:49:44;12.70;99.90
8420;DHT22;4247;48.550;8.822;2022-11-15T11:52:16;12.70;99.90
8420;DHT22;4247;48.550;8.822;2022-11-15T11:54:51;12.70;99.90
8420;DHT22;4247;48.550;8.822;2022-11-15T11:57:27;12.70;99.90
8420;DHT22;4247;48.550;8.822;2022-11-15T12:00:00;12.70;99.90
8420;DHT22;4247;48.550;8.822;2022-11-15T12:02:30;12.80;99.90
8420;DHT22;4247;48.550;8.822;2022-11-15T12:05:05;12.70;99.90
8420;DHT22;4247;48.550;8.822;2022-11-15T12:07:35;12.70;99.90
8420;DHT22;4247;48.550;8.822;2022-11-15T12:10:11;12.80;99.90
8420;DHT22;4247;48.550;8.822;2022-11-15T12:12:48;12.80;99.90
8420;DHT22;4247;48.550;8.822;2022-11-15T12:15:18;12.80;99.90
8420;DHT22;4247;48.550;8.822;2022-11-15T12:17:48;12.90;99.90
8420;DHT22;4247;48.550;8.822;2022-11-15T12:20:18;12.90;99.90
8420;DHT22;4247;48.550;8.822;2022-11-15T12:22:52;13.00;99.90
8420;DHT22;4247;48.550;8.822;2022-11-15T12:25:22;13.00;99.90
8420;DHT22;4247;48.550;8.822;2022-11-15T12:27:54;13.10;99.90
8420;DHT22;4247;48.550;8.822;2022-11-15T12:30:24;13.10;99.90
8420;DHT22;4247;48.550;8.822;2022-11-15T12:32:55;13.20;99.90
8420;DHT22;4247;48.550;8.822;2022-11-15T12:35:33;13.20;99.90
8420;DHT22;4247;48.550;8.822;2022-11-15T12:38:00;13.20;99.90
8420;DHT22;4247;48.550;8.822;2022-11-15T12:40:33;13.30;99.90
8420;DHT22;4247;48.550;8.822;2022-11-15T12:43:03;13.30;99.90
8420;DHT22;4247;48.550;8.822;2022-11-15T12:45:32;13.30;99.90
8420;DHT22;4247;48.550;8.822;2022-11-15T12:51:18;13.30;99.90
8420;DHT22;4247;48.550;8.822;2022-11-15T12:53:46;13.20;99.90
8420;DHT22;4247;48.550;8.822;2022-11-15T12:56:21;13.20;99.90
8420;DHT22;4247;48.550;8.822;2022-11-15T12:58:54;13.20;99.90
8420;DHT22;4247;48.550;8.822;2022-11-15T13:01:57;13.20;99.90
8420;DHT22;4247;48.550;8.822;2022-11-15T13:04:28;13.20;99.90
8420;DHT22;4247;48.550;8.822;2022-11-15T13:07:00;13.20;99.90
8420;DHT22;4247;48.550;8.822;2022-11-15T13:09:51;13.20;99.90
8420;DHT22;4247;48.550;8.822;2022-11-15T13:15:53;13.20;99.90
8420;DHT22;4247;48.550;8.822;2022-11-15T13:18:34;13.20;99.90
8420;DHT22;4247;48.550;8.822;2022-11-15T13:21:02;13.20;99.90
8420;DHT22;4247;48.550;8.822;2022-11-15T13:23:54;13.20;99.90
8420;DHT22;4247;48.550;8.822;2022-11-15T13:26:21;13.20;99.90
8420;DHT22;4247;48.550;8.822;2022-11-15T13:28:51;13.20;99.90
8420;DHT22;4247;48.550;8.822;2022-11-15T13:31:26;13.10;99.90
8420;DHT22;4247;48.550;8.822;2022-11-15T13:33:57;13.20;99.90
8420;DHT22;4247;48.550;8.822;2022-11-15T13:36:26;13.20;99.90
8420;DHT22;4247;48.550;8.822;2022-11-15T13:38:57;13.20;99.90
8420;DHT22;4247;48.550;8.822;2022-11-15T13:41:26;13.20;99.90
8420;DHT22;4247;48.550;8.822;2022-11-15T13:43:56;13.20;99.90
8420;DHT22;4247;48.550;8.822;2022-11-15T13:46:24;13.20;99.90
8420;DHT22;4247;48.550;8.822;2022-11-15T13:48:54;13.20;99.90
8420;DHT22;4247;48.550;8.822;2022-11-15T13:51:32;13.20;99.90
8420;DHT22;4247;48.550;8.822;2022-11-15T13:54:03;13.10;99.90
8420;DHT22;4247;48.550;8.822;2022-11-15T13:56:34;13.10;99.90
8420;DHT22;4247;48.550;8.822;2022-11-15T13:59:09;13.10;99.90
8420;DHT22;4247;48.550;8.822;2022-11-15T14:01:36;13.10;99.90
8420;DHT22;4247;48.550;8.822;2022-11-15T14:04:03;13.10;99.90
8420;DHT22;4247;48.550;8.822;2022-11-15T14:06:30;13.10;99.90
8420;DHT22;4247;48.550;8.822;2022-11-15T14:09:14;13.00;99.90
8420;DHT22;4247;48.550;8.822;2022-11-15T14:11:50;13.00;99.90
8420;DHT22;4247;48.550;8.822;2022-11-15T14:14:20;13.00;99.90
8420;DHT22;4247;48.550;8.822;2022-11-15T14:16:50;12.90;99.90
8420;DHT22;4247;48.550;8.822;2022-11-15T14:19:36;12.90;99.90
8420;DHT22;4247;48.550;8.822;2022-11-15T14:22:12;12.90;99.90
8420;DHT22;4247;48.550;8.822;2022-11-15T14:24:43;12.80;99.90
8420;DHT22;4247;48.550;8.822;2022-11-15T14:27:22;12.70;99.90
8420;DHT22;4247;48.550;8.822;2022-11-15T14:29:50;12.70;99.90
8420;DHT22;4247;48.550;8.822;2022-11-15T14:32:18;12.60;99.90
8420;DHT22;4247;48.550;8.822;2022-11-15T14:34:47;12.60;99.90
8420;DHT22;4247;48.550;8.822;2022-11-15T14:37:24;12.70;99.90
8420;DHT22;4247;48.550;8.822;2022-11-15T14:39:53;12.70;99.90
8420;DHT22;4247;48.550;8.822;2022-11-15T14:42:23;12.70;99.90
8420;DHT22;4247;48.550;8.822;2022-11-15T14:44:50;12.60;99.90
8420;DHT22;4247;48.550;8.822;2022-11-15T14:47:17;12.60;99.90
8420;DHT22;4247;48.550;8.822;2022-11-15T14:49:44;12.60;99.90
8420;DHT22;4247;48.550;8.822;2022-11-15T14:52:24;12.60;99.90
8420;DHT22;4247;48.550;8.822;2022-11-15T14:54:54;12.60;99.90
8420;DHT22;4247;48.550;8.822;2022-11-15T14:57:23;12.60;99.90
8420;DHT22;4247;48.550;8.822;2022-11-15T14:59:50;12.50;99.90
8420;DHT22;4247;48.550;8.822;2022-11-15T15:02:19;12.50;99.90
8420;DHT22;4247;48.550;8.822;2022-11-15T15:04:47;12.50;99.90
8420;DHT22;4247;48.550;8.822;2022-11-15T15:07:13;12.50;99.90
8420;DHT22;4247;48.550;8.822;2022-11-15T15:09:41;12.50;99.90
8420;DHT22;4247;48.550;8.822;2022-11-15T15:12:15;12.50;99.90
8420;DHT22;4247;48.550;8.822;2022-11-15T15:14:43;12.40;99.90
8420;DHT22;4247;48.550;8.822;2022-11-15T15:17:10;12.40;99.90
8420;DHT22;4247;48.550;8.822;2022-11-15T15:19:37;12.40;99.90
8420;DHT22;4247;48.550;8.822;2022-11-15T15:22:04;12.30;99.90
8420;DHT22;4247;48.550;8.822;2022-11-15T15:24:31;12.30;99.90
8420;DHT22;4247;48.550;8.822;2022-11-15T15:26:58;12.30;99.90
8420;DHT22;4247;48.550;8.822;2022-11-15T15:29:26;12.30;99.90
8420;DHT22;4247;48.550;8.822;2022-11-15T15:31:53;12.30;99.90
8420;DHT22;4247;48.550;8.822;2022-11-15T15:34:20;12.20;99.90
8420;DHT22;4247;48.550;8.822;2022-11-15T15:36:47;12.20;99.90
8420;DHT22;4247;48.550;8.822;2022-11-15T15:39:14;12.10;99.90
8420;DHT22;4247;48.550;8.822;2022-11-15T15:41:41;12.10;99.90
8420;DHT22;4247;48.550;8.822;2022-11-15T15:44:07;12.00;99.90
8420;DHT22;4247;48.550;8.822;2022-11-15T15:46:35;12.00;99.90
8420;DHT22;4247;48.550;8.822;2022-11-15T15:49:02;12.00;99.90
8420;DHT22;4247;48.550;8.822;2022-11-15T15:51:29;12.00;99.90
8420;DHT22;4247;48.550;8.822;2022-11-15T15:53:56;12.00;99.90
8420;DHT22;4247;48.550;8.822;2022-11-15T15:56:23;12.00;99.90
8420;DHT22;4247;48.550;8.822;2022-11-15T15:58:50;11.90;99.90
8420;DHT22;4247;48.550;8.822;2022-11-15T16:01:18;11.90;99.90
8420;DHT22;4247;48.550;8.822;2022-11-15T16:03:47;11.90;99.90
8420;DHT22;4247;48.550;8.822;2022-11-15T16:06:34;11.90;99.90
8420;DHT22;4247;48.550;8.822;2022-11-15T16:09:01;11.80;99.90
8420;DHT22;4247;48.550;8.822;2022-11-15T16:11:28;11.80;99.90
8420;DHT22;4247;48.550;8.822;2022-11-15T16:13:55;11.70;99.90
8420;DHT22;4247;48.550;8.822;2022-11-15T16:16:22;11.70;99.90
8420;DHT22;4247;48.550;8.822;2022-11-15T16:18:50;11.70;99.90
8420;DHT22;4247;48.550;8.822;2022-11-15T16:21:19;11.70;99.90
8420;DHT22;4247;48.550;8.822;2022-11-15T16:23:45;11.60;99.90
8420;DHT22;4247;48.550;8.822;2022-11-15T16:26:18;11.60;99.90
8420;DHT22;4247;48.550;8.822;2022-11-15T16:28:46;11.60;99.90
8420;DHT22;4247;48.550;8.822;2022-11-15T16:31:13;11.60;99.90
8420;DHT22;4247;48.550;8.822;2022-11-15T16:33:42;11.60;99.90
8420;DHT22;4247;48.550;8.822;2022-11-15T16:36:20;11.60;99.90
8420;DHT22;4247;48.550;8.822;2022-11-15T16:38:47;11.50;99.90
8420;DHT22;4247;48.550;8.822;2022-11-15T16:41:14;11.50;99.90
8420;DHT22;4247;48.550;8.822;2022-11-15T16:43:45;11.50;99.90
8420;DHT22;4247;48.550;8.822;2022-11-15T16:46:17;11.50;99.90